Time;durP1;ratioP1;P1;durP2;ratioP2;P2;SDS_P1;SDS_P2;PMS_P1;PMS_P2;Temp;Humidity;BMP_temperature;BMP_pressure;BME280_temperature;BME280_humidity;BME280_pressure;Samples;Min_cycle;Max_cycle;Signal;HPM_P1;HPM_P2
2024/01/14 00:02:17;;;;;;;38.50;23.45;;;4.80;99.90;;;;;;5038462;28;20024;-86
2024/01/14 00:04:44;;;;;;;37.58;23.75;;;4.80;99.90;;;;;;5042306;28;20028;-85
2024/01/14 00:07:10;;;;;;;37.92;23.02;;;4.80;99.90;;;;;;5024068;28;20174;-85
2024/01/14 00:09:36;;;;;;;37.83;22.90;;;4.80;99.90;;;;;;5046782;28;20033;-85
2024/01/14 00:12:05;;;;;;;33.50;22.00;;;4.70;99.90;;;;;;5057808;28;20545;-85
2024/01/14 00:14:30;;;;;;;36.17;22.30;;;4.70;99.90;;;;;;5058321;28;20096;-85
2024/01/14 00:16:56;;;;;;;34.47;20.80;;;4.80;99.90;;;;;;5056342;28;20060;-83
2024/01/14 00:19:22;;;;;;;34.17;21.33;;;4.70;99.90;;;;;;5076392;28;20033;-86
2024/01/14 00:21:48;;;;;;;33.47;21.20;;;4.70;99.90;;;;;;5058139;28;20119;-85
2024/01/14 00:24:15;;;;;;;36.50;22.90;;;4.70;99.90;;;;;;5058499;28;20027;-84
2024/01/14 00:26:40;;;;;;;37.78;21.42;;;4.80;99.90;;;;;;5040742;28;20056;-85
2024/01/14 00:29:06;;;;;;;34.63;21.42;;;4.70;99.90;;;;;;5039256;28;20072;-85
2024/01/14 00:31:32;;;;;;;33.65;21.10;;;4.70;99.90;;;;;;5035067;28;20036;-84
2024/01/14 00:34:00;;;;;;;35.05;22.25;;;4.80;99.90;;;;;;5045267;28;20035;-85
2024/01/14 00:36:26;;;;;;;35.97;22.00;;;4.80;99.90;;;;;;5053044;28;20032;-85
2024/01/14 00:38:51;;;;;;;34.33;21.00;;;4.70;99.90;;;;;;5028082;28;20037;-85
2024/01/14 00:41:17;;;;;;;37.50;22.42;;;4.70;99.90;;;;;;5041310;28;20028;-85
2024/01/14 00:43:43;;;;;;;35.55;22.75;;;4.70;99.90;;;;;;5080627;28;20055;-84
2024/01/14 00:46:09;;;;;;;37.85;22.65;;;4.70;99.90;;;;;;5080298;28;20025;-84
2024/01/14 00:48:35;;;;;;;34.92;21.83;;;4.70;99.90;;;;;;5044551;28;20491;-85
2024/01/14 00:51:00;;;;;;;35.67;21.83;;;4.70;99.90;;;;;;5075182;28;20107;-83
2024/01/14 00:53:26;;;;;;;36.15;22.30;;;4.70;99.90;;;;;;5038207;28;20040;-85
2024/01/14 00:55:52;;;;;;;36.65;22.58;;;4.70;99.90;;;;;;5057631;28;20032;-85
2024/01/14 00:58:17;;;;;;;36.00;22.17;;;4.70;99.90;;;;;;5057291;28;20099;-84
2024/01/14 01:00:43;;;;;;;31.17;20.27;;;4.80;99.90;;;;;;5040468;28;20170;-84
2024/01/14 01:03:09;;;;;;;32.72;20.10;;;4.70;99.90;;;;;;5038685;28;20064;-83
2024/01/14 01:05:34;;;;;;;34.53;20.33;;;4.70;99.90;;;;;;5045045;28;20043;-84
2024/01/14 01:08:01;;;;;;;36.67;22.20;;;4.70;99.90;;;;;;5057926;28;20468;-84
2024/01/14 01:10:27;;;;;;;40.65;22.95;;;4.70;99.90;;;;;;5057189;28;20083;-84
2024/01/14 01:12:52;;;;;;;41.22;23.40;;;4.70;99.90;;;;;;5041227;28;20408;-83
2024/01/14 01:15:18;;;;;;;42.85;25.15;;;4.70;99.90;;;;;;5040660;28;20075;-84
2024/01/14 01:17:44;;;;;;;40.40;24.77;;;4.70;99.90;;;;;;5074645;28;20452;-84
2024/01/14 01:20:10;;;;;;;44.95;25.48;;;4.60;99.90;;;;;;5057178;28;20433;-84
2024/01/14 01:22:36;;;;;;;41.53;24.67;;;4.60;99.90;;;;;;5036088;28;20040;-85
2024/01/14 01:25:02;;;;;;;41.65;24.85;;;4.60;99.90;;;;;;5037559;28;20472;-84
2024/01/14 01:27:29;;;;;;;44.58;26.25;;;4.70;99.90;;;;;;5051060;28;20055;-84
2024/01/14 01:29:55;;;;;;;41.22;24.73;;;4.70;99.90;;;;;;5036831;28;20124;-84
2024/01/14 01:32:21;;;;;;;43.13;26.08;;;4.70;99.90;;;;;;5051203;28;20033;-84
2024/01/14 01:34:47;;;;;;;42.88;26.20;;;4.70;99.90;;;;;;5025284;28;20028;-84
2024/01/14 01:37:13;;;;;;;43.22;26.38;;;4.70;99.90;;;;;;5037201;28;20033;-84
2024/01/14 01:39:39;;;;;;;45.05;26.17;;;4.70;99.90;;;;;;5036565;28;20507;-84
2024/01/14 01:42:05;;;;;;;43.63;25.38;;;4.60;99.90;;;;;;5039529;28;20029;-84
2024/01/14 01:44:30;;;;;;;47.15;27.50;;;4.60;99.90;;;;;;5056829;28;20028;-83
2024/01/14 01:46:56;;;;;;;48.60;27.15;;;4.60;99.90;;;;;;5036098;28;20520;-83
2024/01/14 01:49:23;;;;;;;44.70;27.63;;;4.60;99.90;;;;;;5020635;28;20114;-84
2024/01/14 01:51:50;;;;;;;48.05;28.52;;;4.50;99.90;;;;;;5027581;28;20032;-83
2024/01/14 01:54:22;;;;;;;46.40;28.17;;;4.60;99.90;;;;;;5050351;28;20024;-83
2024/01/14 01:56:50;;;;;;;48.17;28.50;;;4.60;99.90;;;;;;5057384;28;20024;-83
2024/01/14 01:59:16;;;;;;;43.25;26.35;;;4.60;99.90;;;;;;5057402;28;20082;-84
2024/01/14 02:01:44;;;;;;;52.88;29.40;;;4.60;99.90;;;;;;5021697;28;20037;-83
2024/01/14 02:04:15;;;;;;;47.63;29.00;;;4.60;99.90;;;;;;5058250;28;20019;-83
2024/01/14 02:06:41;;;;;;;49.17;27.92;;;4.60;99.90;;;;;;5079044;28;20080;-82
2024/01/14 02:09:08;;;;;;;50.97;29.35;;;4.60;99.90;;;;;;5071318;28;20037;-83
2024/01/14 02:11:35;;;;;;;50.25;30.73;;;4.60;99.90;;;;;;5023125;28;20081;-83
2024/01/14 02:14:01;;;;;;;48.42;29.27;;;4.60;99.90;;;;;;5056756;28;20027;-84
2024/01/14 02:16:27;;;;;;;46.50;28.38;;;4.60;99.90;;;;;;5039079;28;20028;-83
2024/01/14 02:18:52;;;;;;;54.00;29.73;;;4.60;99.90;;;;;;5035960;28;20025;-83
2024/01/14 02:21:21;;;;;;;52.58;29.55;;;4.60;99.90;;;;;;5037987;28;20119;-83
2024/01/14 02:23:56;;;;;;;50.70;30.90;;;4.60;99.90;;;;;;5056129;28;20024;-83
2024/01/14 02:26:22;;;;;;;49.38;29.98;;;4.70;99.90;;;;;;5072274;28;20107;-84
2024/01/14 02:28:48;;;;;;;51.85;30.60;;;4.70;99.90;;;;;;5054849;28;20503;-83
2024/01/14 02:31:15;;;;;;;49.22;29.20;;;4.70;99.90;;;;;;5046999;28;20116;-83
2024/01/14 02:33:40;;;;;;;48.38;28.95;;;4.70;99.90;;;;;;5039438;28;20024;-83
2024/01/14 02:36:06;;;;;;;45.95;30.10;;;4.70;99.90;;;;;;5038782;28;20043;-83
2024/01/14 02:38:32;;;;;;;48.55;29.15;;;4.70;99.90;;;;;;5037733;28;20040;-83
2024/01/14 02:40:57;;;;;;;49.65;28.83;;;4.60;99.90;;;;;;5036339;28;20040;-83
2024/01/14 02:43:23;;;;;;;46.15;27.27;;;4.60;99.90;;;;;;5025713;28;20029;-84
2024/01/14 02:45:49;;;;;;;46.70;27.50;;;4.70;99.90;;;;;;5019808;28;20419;-83
2024/01/14 02:48:14;;;;;;;47.30;28.55;;;4.60;99.90;;;;;;5032765;28;20556;-84
2024/01/14 02:50:40;;;;;;;48.28;28.17;;;4.60;99.90;;;;;;5051207;28;20090;-83
2024/01/14 02:53:05;;;;;;;45.78;27.70;;;4.70;99.90;;;;;;5019336;28;20029;-83
2024/01/14 02:55:31;;;;;;;48.03;28.92;;;4.70;99.90;;;;;;5032796;28;20338;-83
2024/01/14 02:57:57;;;;;;;48.80;29.08;;;4.70;99.90;;;;;;5035284;28;20032;-83
2024/01/14 03:00:23;;;;;;;48.38;29.20;;;4.70;99.90;;;;;;5046314;28;20592;-83
2024/01/14 03:02:49;;;;;;;48.97;29.20;;;4.60;99.90;;;;;;5020506;28;20127;-83
2024/01/14 03:05:14;;;;;;;48.42;28.40;;;4.60;99.90;;;;;;5038927;28;20024;-83
2024/01/14 03:07:40;;;;;;;46.83;29.33;;;4.60;99.90;;;;;;5044422;28;20124;-83
2024/01/14 03:10:06;;;;;;;43.17;27.13;;;4.60;99.90;;;;;;5044861;28;20060;-83
2024/01/14 03:12:31;;;;;;;46.35;29.30;;;4.60;99.90;;;;;;5026503;28;20033;-83
2024/01/14 03:14:57;;;;;;;44.38;27.95;;;4.60;99.90;;;;;;5034777;28;20496;-83
2024/01/14 03:17:23;;;;;;;47.72;28.90;;;4.60;99.90;;;;;;5028564;28;20033;-83
2024/01/14 03:19:49;;;;;;;46.42;27.30;;;4.60;99.90;;;;;;5056241;28;20098;-83
2024/01/14 03:22:14;;;;;;;48.03;27.48;;;4.60;99.90;;;;;;5082822;28;20096;-83
2024/01/14 03:24:40;;;;;;;46.50;28.35;;;4.60;99.90;;;;;;5055969;28;20026;-84
2024/01/14 03:27:06;;;;;;;50.50;30.25;;;4.50;99.90;;;;;;5074162;28;20039;-83
2024/01/14 03:29:31;;;;;;;49.92;30.00;;;4.60;99.90;;;;;;5050827;28;20419;-84
2024/01/14 03:31:57;;;;;;;49.33;29.95;;;4.60;99.90;;;;;;5026512;28;20029;-84
2024/01/14 03:34:23;;;;;;;52.50;31.90;;;4.60;99.90;;;;;;5039203;28;20036;-81
2024/01/14 03:36:48;;;;;;;49.45;30.45;;;4.60;99.90;;;;;;5045904;28;20029;-83
2024/01/14 03:39:14;;;;;;;51.63;31.20;;;4.50;99.90;;;;;;5055581;28;20487;-84
2024/01/14 03:41:40;;;;;;;52.60;31.30;;;4.50;99.90;;;;;;5038580;28;20033;-84
2024/01/14 03:44:06;;;;;;;53.70;31.90;;;4.50;99.90;;;;;;5022367;28;20025;-84
2024/01/14 03:46:32;;;;;;;53.33;30.60;;;4.50;99.90;;;;;;5055006;28;20054;-84
2024/01/14 03:48:58;;;;;;;50.78;30.50;;;4.50;99.90;;;;;;5050477;28;20113;-84
2024/01/14 03:51:23;;;;;;;53.15;30.85;;;4.50;99.90;;;;;;5048679;28;20037;-84
2024/01/14 03:53:56;;;;;;;50.50;31.27;;;4.50;99.90;;;;;;5034475;28;20473;-84
2024/01/14 03:56:22;;;;;;;56.72;31.55;;;4.50;99.90;;;;;;5055282;28;20036;-84
2024/01/14 03:58:47;;;;;;;55.08;31.08;;;4.50;99.90;;;;;;5038169;28;20035;-84
2024/01/14 04:01:18;;;;;;;48.53;29.67;;;4.50;99.90;;;;;;5051860;28;20128;-84
2024/01/14 04:03:43;;;;;;;51.08;30.80;;;4.50;99.90;;;;;;5051433;28;20032;-84
2024/01/14 04:06:09;;;;;;;48.25;29.35;;;4.40;99.90;;;;;;5022005;28;20358;-84
2024/01/14 04:08:35;;;;;;;51.70;30.50;;;4.40;99.90;;;;;;5034753;28;20115;-84
2024/01/14 04:11:00;;;;;;;47.58;27.58;;;4.40;99.90;;;;;;5053960;28;20044;-84
2024/01/14 04:13:26;;;;;;;48.55;28.30;;;4.40;99.90;;;;;;5055675;28;20116;-84
2024/01/14 04:15:55;;;;;;;50.42;29.42;;;4.40;99.90;;;;;;5041738;28;20446;-84
2024/01/14 04:18:20;;;;;;;47.13;28.00;;;4.30;99.90;;;;;;5042693;28;20041;-84
2024/01/14 04:20:46;;;;;;;48.42;28.50;;;4.30;99.90;;;;;;5058619;28;20041;-84
2024/01/14 04:23:11;;;;;;;45.92;27.75;;;4.30;99.90;;;;;;5025811;28;20067;-84
2024/01/14 04:25:37;;;;;;;47.17;28.98;;;4.30;99.90;;;;;;5075168;28;20414;-84
2024/01/14 04:28:03;;;;;;;45.47;28.90;;;4.30;99.90;;;;;;5042414;28;20482;-83
2024/01/14 04:30:29;;;;;;;47.72;28.80;;;4.30;99.90;;;;;;5042004;28;20029;-84
2024/01/14 04:32:54;;;;;;;55.85;31.02;;;4.30;99.90;;;;;;5025663;28;20021;-84
2024/01/14 04:35:20;;;;;;;53.13;29.85;;;4.30;99.90;;;;;;5058807;28;20479;-84
2024/01/14 04:37:46;;;;;;;51.95;29.92;;;4.30;99.90;;;;;;5039351;28;20033;-84
2024/01/14 04:40:11;;;;;;;47.92;28.52;;;4.20;99.90;;;;;;5049069;28;20033;-83
2024/01/14 04:42:37;;;;;;;52.72;30.02;;;4.30;99.90;;;;;;5078004;28;20035;-83
2024/01/14 04:45:03;;;;;;;45.72;28.50;;;4.30;99.90;;;;;;5043776;28;20029;-84
2024/01/14 04:47:29;;;;;;;49.42;28.60;;;4.30;99.90;;;;;;5075110;28;20473;-83
2024/01/14 04:49:54;;;;;;;46.97;28.67;;;4.30;99.90;;;;;;5057251;28;20056;-84
2024/01/14 04:52:20;;;;;;;54.35;31.05;;;4.30;99.90;;;;;;5038879;28;20045;-84
2024/01/14 04:54:46;;;;;;;47.90;28.45;;;4.30;99.90;;;;;;5037899;28;20467;-83
2024/01/14 04:57:11;;;;;;;54.13;30.90;;;4.30;99.90;;;;;;5024564;28;20040;-84
2024/01/14 04:59:37;;;;;;;53.45;29.58;;;4.30;99.90;;;;;;5057575;28;20111;-83
2024/01/14 05:02:03;;;;;;;51.42;30.80;;;4.30;99.90;;;;;;5057795;28;20067;-84
2024/01/14 05:04:29;;;;;;;52.38;30.95;;;4.30;99.90;;;;;;5057805;28;20384;-83
2024/01/14 05:06:54;;;;;;;58.38;31.80;;;4.30;99.90;;;;;;5040318;28;20027;-83
2024/01/14 05:09:21;;;;;;;56.53;32.53;;;4.20;99.90;;;;;;5057080;28;20032;-83
2024/01/14 05:11:47;;;;;;;62.45;33.90;;;4.20;99.90;;;;;;5023909;28;20082;-83
2024/01/14 05:14:13;;;;;;;51.30;29.45;;;4.20;99.90;;;;;;5037351;28;20047;-84
2024/01/14 05:16:38;;;;;;;50.33;30.25;;;4.20;99.90;;;;;;5054032;28;20025;-83
2024/01/14 05:19:04;;;;;;;54.30;31.00;;;4.20;99.90;;;;;;5024311;28;20039;-84
2024/01/14 05:21:30;;;;;;;56.53;30.38;;;4.20;99.90;;;;;;5023878;28;20029;-83
2024/01/14 05:23:55;;;;;;;48.70;29.08;;;4.10;99.90;;;;;;5053676;28;20078;-83
2024/01/14 05:26:24;;;;;;;50.00;30.20;;;4.10;99.90;;;;;;5020934;28;20025;-84
2024/01/14 05:28:50;;;;;;;51.75;28.88;;;4.10;99.90;;;;;;5040620;28;20029;-83
2024/01/14 05:31:15;;;;;;;51.28;29.48;;;4.00;99.90;;;;;;5040755;28;20036;-83
2024/01/14 05:33:41;;;;;;;49.30;29.38;;;4.10;99.90;;;;;;5073565;28;20032;-83
2024/01/14 05:36:07;;;;;;;53.03;29.88;;;4.10;99.90;;;;;;5024215;28;20032;-83
2024/01/14 05:38:32;;;;;;;45.00;25.90;;;4.00;99.90;;;;;;5020530;28;20021;-83
2024/01/14 05:40:58;;;;;;;45.30;26.77;;;4.10;99.90;;;;;;5053597;28;20388;-83
2024/01/14 05:43:24;;;;;;;48.28;27.33;;;4.10;99.90;;;;;;5053643;28;20021;-83
2024/01/14 05:45:49;;;;;;;52.60;28.38;;;4.10;99.90;;;;;;5053435;28;20472;-83
2024/01/14 05:48:15;;;;;;;51.95;30.50;;;4.10;99.90;;;;;;5038078;28;20029;-83
2024/01/14 05:50:41;;;;;;;54.67;29.17;;;4.10;99.90;;;;;;5040733;28;20060;-83
2024/01/14 05:53:07;;;;;;;50.42;28.77;;;4.00;99.90;;;;;;5076168;28;20145;-82
2024/01/14 05:55:32;;;;;;;45.28;26.67;;;4.10;99.90;;;;;;5069781;28;20016;-83
2024/01/14 05:57:58;;;;;;;45.30;26.08;;;4.10;99.90;;;;;;5058328;28;20040;-83
2024/01/14 06:00:23;;;;;;;47.72;26.58;;;4.00;99.90;;;;;;5054157;28;20032;-82
2024/01/14 06:02:49;;;;;;;40.90;25.63;;;4.10;99.90;;;;;;5063142;28;20043;-82
2024/01/14 06:05:15;;;;;;;47.72;27.15;;;4.10;99.90;;;;;;5046262;28;20021;-83
2024/01/14 06:07:41;;;;;;;40.80;25.40;;;4.10;99.90;;;;;;5060266;28;20028;-82
2024/01/14 06:10:08;;;;;;;41.92;25.38;;;4.00;99.90;;;;;;5020639;28;20044;-82
2024/01/14 06:12:34;;;;;;;43.25;25.42;;;4.00;99.90;;;;;;5040319;28;20435;-83
2024/01/14 06:14:59;;;;;;;40.55;25.15;;;4.00;99.90;;;;;;5038948;28;20530;-82
2024/01/14 06:17:25;;;;;;;44.63;25.45;;;4.00;99.90;;;;;;5056953;28;20381;-83
2024/01/14 06:19:51;;;;;;;41.95;23.08;;;4.00;99.90;;;;;;5022964;28;20468;-82
2024/01/14 06:22:16;;;;;;;43.50;25.25;;;4.00;99.90;;;;;;5074216;28;20468;-82
2024/01/14 06:24:44;;;;;;;39.38;23.45;;;4.00;99.90;;;;;;5039525;28;20482;-82
2024/01/14 06:27:10;;;;;;;43.00;25.15;;;4.00;99.90;;;;;;5055938;28;20028;-82
2024/01/14 06:29:36;;;;;;;40.08;24.10;;;4.00;99.90;;;;;;5039282;28;20666;-83
2024/01/14 06:32:01;;;;;;;40.50;24.40;;;4.00;99.90;;;;;;5036455;28;20029;-83
2024/01/14 06:34:27;;;;;;;43.50;26.10;;;4.00;99.90;;;;;;5036884;28;20021;-82
2024/01/14 06:36:53;;;;;;;45.33;27.27;;;4.00;99.90;;;;;;5036594;28;20465;-83
2024/01/14 06:39:18;;;;;;;46.03;27.35;;;4.00;99.90;;;;;;5020634;28;20060;-83
2024/01/14 06:41:44;;;;;;;46.53;28.40;;;4.00;99.90;;;;;;5056570;28;20035;-83
2024/01/14 06:44:10;;;;;;;50.15;29.10;;;4.10;99.90;;;;;;5023571;28;20032;-82
2024/01/14 06:46:43;;;;;;;53.05;31.48;;;4.00;99.90;;;;;;5035950;28;20057;-83
2024/01/14 06:49:09;;;;;;;50.88;30.33;;;4.00;99.90;;;;;;5036187;28;20040;-83
2024/01/14 06:51:42;;;;;;;55.33;30.73;;;4.00;99.90;;;;;;5023030;28;20036;-83
2024/01/14 06:54:08;;;;;;;48.97;29.58;;;4.00;99.90;;;;;;5035725;28;20037;-83
2024/01/14 06:56:40;;;;;;;49.10;29.80;;;3.90;99.90;;;;;;5022107;28;20054;-83
2024/01/14 06:59:06;;;;;;;47.67;30.35;;;3.90;99.90;;;;;;5054643;28;20419;-84
2024/01/14 07:01:32;;;;;;;51.45;31.08;;;3.90;99.90;;;;;;5050852;28;20032;-84
2024/01/14 07:03:57;;;;;;;55.20;32.63;;;4.00;99.90;;;;;;5019517;28;20036;-84
2024/01/14 07:06:23;;;;;;;53.80;31.85;;;3.90;99.90;;;;;;5046274;28;20427;-83
2024/01/14 07:08:49;;;;;;;52.65;31.48;;;3.90;99.90;;;;;;5023332;28;20052;-84
2024/01/14 07:11:15;;;;;;;58.42;33.42;;;3.90;99.90;;;;;;5055597;28;20094;-83
2024/01/14 07:13:43;;;;;;;59.17;32.50;;;3.90;99.90;;;;;;5034471;28;20024;-84
2024/01/14 07:16:09;;;;;;;53.63;31.15;;;3.80;99.90;;;;;;5035207;28;20049;-84
2024/01/14 07:18:35;;;;;;;51.72;31.48;;;3.80;99.90;;;;;;5003544;28;20039;-84
2024/01/14 07:21:00;;;;;;;51.53;30.13;;;3.80;99.90;;;;;;5027042;28;20036;-83
2024/01/14 07:23:26;;;;;;;53.28;32.13;;;3.90;99.90;;;;;;5027732;28;20092;-84
2024/01/14 07:25:52;;;;;;;55.90;33.47;;;3.80;99.90;;;;;;5060705;28;20016;-84
2024/01/14 07:28:18;;;;;;;55.53;31.17;;;3.80;99.90;;;;;;5044250;28;20032;-83
2024/01/14 07:30:43;;;;;;;55.72;32.83;;;3.90;99.90;;;;;;5007323;28;20052;-83
2024/01/14 07:33:09;;;;;;;57.88;33.35;;;3.90;99.90;;;;;;5019100;28;20461;-83
2024/01/14 07:35:35;;;;;;;58.40;32.17;;;3.80;99.90;;;;;;5019653;28;20431;-84
2024/01/14 07:38:00;;;;;;;57.80;33.72;;;3.90;99.90;;;;;;5035191;28;20383;-83
2024/01/14 07:40:26;;;;;;;58.65;33.78;;;3.80;99.90;;;;;;5035870;28;20037;-84
2024/01/14 07:42:53;;;;;;;60.38;35.42;;;3.80;99.90;;;;;;5018860;28;20142;-83
2024/01/14 07:45:18;;;;;;;61.53;34.90;;;3.80;99.90;;;;;;5037567;28;20029;-84
2024/01/14 07:47:44;;;;;;;58.38;34.05;;;3.80;99.90;;;;;;5023018;28;20025;-84
2024/01/14 07:50:10;;;;;;;60.70;36.25;;;3.80;99.90;;;;;;5022403;28;20480;-83
2024/01/14 07:52:37;;;;;;;64.05;35.90;;;3.80;99.90;;;;;;5039340;28;20060;-82
2024/01/14 07:55:03;;;;;;;61.90;34.70;;;3.80;99.90;;;;;;5005995;28;20029;-83
2024/01/14 07:57:28;;;;;;;60.55;35.13;;;3.80;99.90;;;;;;5005933;28;20021;-82
2024/01/14 07:59:58;;;;;;;61.75;34.35;;;3.80;99.90;;;;;;5038799;28;20091;-83
2024/01/14 08:02:24;;;;;;;59.65;33.47;;;3.80;99.90;;;;;;5022370;28;20147;-83
2024/01/14 08:04:50;;;;;;;57.80;34.63;;;3.80;99.90;;;;;;5022476;28;20068;-83
2024/01/14 08:07:15;;;;;;;61.95;34.97;;;3.90;99.90;;;;;;5005977;28;20120;-83
2024/01/14 08:09:42;;;;;;;58.67;33.58;;;3.80;99.90;;;;;;5006765;28;20068;-82
2024/01/14 08:12:07;;;;;;;58.65;32.22;;;3.80;99.90;;;;;;5022863;28;20059;-83
2024/01/14 08:14:33;;;;;;;56.13;32.95;;;3.80;99.90;;;;;;5006073;28;20049;-83
2024/01/14 08:16:59;;;;;;;55.65;32.38;;;3.80;99.90;;;;;;5022548;28;20040;-83
2024/01/14 08:19:24;;;;;;;60.13;32.60;;;3.90;99.90;;;;;;5022367;28;20116;-83
2024/01/14 08:21:50;;;;;;;56.03;33.30;;;3.90;99.90;;;;;;5006004;28;20372;-83
2024/01/14 08:24:16;;;;;;;55.75;33.63;;;4.00;99.90;;;;;;5005769;28;20025;-84
2024/01/14 08:26:44;;;;;;;59.28;34.60;;;3.90;99.90;;;;;;5022499;28;20033;-83
2024/01/14 08:29:12;;;;;;;52.25;31.73;;;3.90;99.90;;;;;;5056245;28;20154;-83
2024/01/14 08:31:37;;;;;;;56.55;34.05;;;3.90;99.90;;;;;;5006594;28;20025;-83
2024/01/14 08:34:04;;;;;;;58.67;33.30;;;3.90;99.90;;;;;;5038302;28;20051;-83
2024/01/14 08:36:31;;;;;;;55.38;31.13;;;3.90;99.90;;;;;;5038610;28;20025;-84
2024/01/14 08:38:56;;;;;;;52.42;30.90;;;3.90;99.90;;;;;;5039649;28;20032;-82
2024/01/14 08:41:24;;;;;;;54.70;31.65;;;3.80;99.90;;;;;;5057003;28;20059;-82
2024/01/14 08:43:55;;;;;;;58.00;32.38;;;3.80;99.90;;;;;;5047204;28;20009;-83
2024/01/14 08:46:21;;;;;;;58.05;33.63;;;3.80;99.90;;;;;;5063237;28;20054;-83
2024/01/14 08:48:47;;;;;;;57.30;32.72;;;3.90;99.90;;;;;;5070788;28;20089;-83
2024/01/14 08:51:13;;;;;;;58.85;32.50;;;3.90;99.90;;;;;;5056661;28;20039;-83
2024/01/14 08:53:39;;;;;;;59.15;34.15;;;3.80;99.90;;;;;;5038617;28;20119;-83
2024/01/14 08:56:05;;;;;;;55.58;31.92;;;3.80;99.90;;;;;;5055621;28;20057;-83
2024/01/14 08:58:31;;;;;;;59.72;34.72;;;3.80;99.90;;;;;;5037634;28;20516;-83
2024/01/14 09:00:56;;;;;;;57.85;33.90;;;3.80;99.90;;;;;;5038031;28;20047;-83
2024/01/14 09:03:22;;;;;;;59.55;31.48;;;3.80;99.90;;;;;;5021569;28;20061;-83
2024/01/14 09:05:48;;;;;;;53.85;30.83;;;3.80;99.90;;;;;;5039884;28;20031;-84
2024/01/14 09:08:16;;;;;;;55.28;30.98;;;3.80;99.90;;;;;;5066955;28;20036;-86
2024/01/14 09:10:43;;;;;;;54.30;32.05;;;3.80;99.90;;;;;;5024415;28;20044;-87
2024/01/14 09:13:11;;;;;;;56.08;32.50;;;3.90;99.90;;;;;;5057758;28;20021;-84
2024/01/14 09:15:37;;;;;;;54.60;32.70;;;3.90;99.90;;;;;;5033712;28;20060;-87
2024/01/14 09:18:03;;;;;;;53.70;30.80;;;3.90;99.90;;;;;;5058361;28;20032;-87
2024/01/14 09:20:29;;;;;;;55.90;32.60;;;3.90;99.90;;;;;;5038259;28;20021;-87
2024/01/14 09:22:55;;;;;;;49.47;30.33;;;3.90;99.90;;;;;;5038525;28;20366;-87
2024/01/14 09:25:20;;;;;;;55.53;31.05;;;3.90;99.90;;;;;;5038322;28;20029;-85
2024/01/14 09:27:46;;;;;;;58.20;33.47;;;3.90;99.90;;;;;;5054508;28;20461;-86
2024/01/14 09:30:12;;;;;;;53.45;31.00;;;3.90;99.90;;;;;;5054451;28;20068;-86
2024/01/14 09:32:38;;;;;;;54.75;30.77;;;3.90;99.90;;;;;;5038537;28;20029;-87
2024/01/14 09:35:04;;;;;;;51.60;29.70;;;3.90;99.90;;;;;;5038284;28;20123;-85
2024/01/14 09:37:32;;;;;;;49.97;29.70;;;3.90;99.90;;;;;;5043899;28;20045;-85
2024/01/14 09:39:58;;;;;;;51.72;30.42;;;3.90;99.90;;;;;;5040903;28;20040;-85
2024/01/14 09:42:39;;;;;;;50.22;31.15;;;3.90;99.90;;;;;;5042688;28;20029;-85
2024/01/14 09:45:08;;;;;;;53.60;29.63;;;3.90;99.90;;;;;;5059676;28;20372;-85
2024/01/14 09:47:38;;;;;;;46.42;27.80;;;3.90;99.90;;;;;;5025514;28;20028;-85
2024/01/14 09:50:06;;;;;;;45.97;28.38;;;3.90;99.90;;;;;;5057733;28;20376;-87
2024/01/14 09:52:32;;;;;;;49.70;30.63;;;3.90;99.90;;;;;;5034416;28;20029;-85
2024/01/14 09:54:58;;;;;;;48.58;27.90;;;4.00;99.90;;;;;;5056548;28;20112;-85
2024/01/14 09:57:25;;;;;;;50.47;29.33;;;3.90;99.90;;;;;;5042933;28;20052;-84
2024/01/14 09:59:51;;;;;;;49.40;29.25;;;4.00;99.90;;;;;;5049795;28;20047;-84
2024/01/14 10:02:19;;;;;;;53.30;30.60;;;4.00;99.90;;;;;;5076792;28;20029;-83
2024/01/14 10:04:45;;;;;;;49.22;29.25;;;4.00;99.90;;;;;;5060066;28;20029;-84
2024/01/14 10:07:12;;;;;;;49.97;29.55;;;4.00;99.90;;;;;;5050932;28;20087;-84
2024/01/14 10:09:43;;;;;;;50.33;29.10;;;4.00;99.90;;;;;;5056261;28;20039;-84
2024/01/14 10:12:09;;;;;;;54.03;30.58;;;4.10;99.90;;;;;;5055730;28;20036;-84
2024/01/14 10:14:38;;;;;;;48.60;29.67;;;4.10;99.90;;;;;;5056224;28;20493;-84
2024/01/14 10:17:04;;;;;;;47.10;29.33;;;4.20;99.90;;;;;;5056544;28;20391;-84
2024/01/14 10:19:38;;;;;;;52.55;29.88;;;4.20;99.90;;;;;;5074364;28;20033;-84
2024/01/14 10:22:07;;;;;;;48.65;28.77;;;4.20;99.90;;;;;;5054720;28;20032;-85
2024/01/14 10:24:33;;;;;;;45.67;28.58;;;4.20;99.90;;;;;;5039625;28;20055;-83
2024/01/14 10:27:05;;;;;;;55.65;32.45;;;4.20;99.90;;;;;;5052193;28;20029;-83
2024/01/14 10:29:37;;;;;;;54.97;32.35;;;4.20;99.90;;;;;;5053162;28;20088;-86
2024/01/14 10:32:14;;;;;;;53.20;30.75;;;4.10;99.90;;;;;;5039549;28;20036;-85
2024/01/14 10:34:41;;;;;;;57.55;30.52;;;4.10;99.90;;;;;;5038630;28;20154;-84
2024/01/14 10:37:07;;;;;;;52.17;30.60;;;4.10;99.90;;;;;;5039318;28;20127;-85
2024/01/14 10:39:42;;;;;;;52.92;30.70;;;4.20;99.90;;;;;;5052498;28;20029;-86
2024/01/14 10:42:10;;;;;;;55.28;32.75;;;4.20;99.90;;;;;;5053450;28;20532;-86
2024/01/14 10:44:36;;;;;;;53.33;31.42;;;4.20;99.90;;;;;;5052937;28;20032;-84
2024/01/14 10:47:12;;;;;;;54.92;33.03;;;4.20;99.90;;;;;;5053194;28;20029;-86
2024/01/14 10:49:52;;;;;;;54.42;31.83;;;4.20;99.90;;;;;;5039940;28;20051;-86
2024/01/14 10:52:34;;;;;;;;;;;;;;;;;;;;;
2024/01/14 10:55:34;;;;;;;56.95;32.20;;;4.20;99.90;;;;;;5070592;28;20035;-87
2024/01/14 10:58:22;;;;;;;53.25;31.13;;;4.20;99.90;;;;;;5051999;28;20503;-86
2024/01/14 11:00:50;;;;;;;55.75;33.25;;;4.20;99.90;;;;;;5062957;28;20036;-86
2024/01/14 11:03:17;;;;;;;54.42;31.33;;;4.20;99.90;;;;;;5074592;28;20021;-87
2024/01/14 11:05:43;;;;;;;61.30;32.92;;;4.20;99.90;;;;;;5055957;28;20017;-88
2024/01/14 11:08:11;;;;;;;54.85;32.42;;;4.20;99.90;;;;;;5052941;28;20025;-87
2024/01/14 11:10:40;;;;;;;56.40;33.28;;;4.20;99.90;;;;;;5053159;28;20476;-87
2024/01/14 11:13:31;;;;;;;55.92;32.60;;;4.30;99.90;;;;;;5053373;28;20025;-87
2024/01/14 11:16:09;;;;;;;59.13;33.15;;;4.30;99.90;;;;;;5040761;28;20066;-87
2024/01/14 11:19:01;;;;;;;58.08;33.05;;;4.30;99.90;;;;;;5055576;28;20020;-87
2024/01/14 11:21:49;;;;;;;55.30;31.77;;;4.20;99.90;;;;;;5072921;28;20029;-85
2024/01/14 11:24:15;;;;;;;51.80;30.40;;;4.30;99.90;;;;;;5076491;28;20071;-86
2024/01/14 11:26:41;;;;;;;51.47;29.63;;;4.30;99.90;;;;;;5073810;28;20028;-87
2024/01/14 11:29:06;;;;;;;53.00;29.50;;;4.30;99.90;;;;;;5040692;28;20033;-86
2024/01/14 11:32:03;;;;;;;49.67;29.73;;;4.30;99.90;;;;;;5037544;28;20037;-88
2024/01/14 11:34:50;;;;;;;51.20;29.60;;;4.30;99.90;;;;;;5053758;28;20025;-86
2024/01/14 11:37:40;;;;;;;48.17;28.70;;;4.40;99.90;;;;;;5053341;28;20480;-87
2024/01/14 11:40:06;;;;;;;49.90;29.08;;;4.30;99.90;;;;;;5053219;28;20025;-87
2024/01/14 11:42:52;;;;;;;47.08;28.48;;;4.30;99.90;;;;;;5052924;28;20461;-87
2024/01/14 11:45:25;;;;;;;51.00;28.63;;;4.40;99.90;;;;;;5025341;28;20481;-87
2024/01/14 11:47:55;;;;;;;49.97;28.42;;;4.40;99.90;;;;;;5053497;28;20029;-86
2024/01/14 11:50:23;;;;;;;48.78;27.42;;;4.40;99.90;;;;;;5052666;28;20098;-86
2024/01/14 11:52:51;;;;;;;41.22;24.70;;;4.30;99.90;;;;;;5052335;28;20471;-87
2024/01/14 11:55:33;;;;;;;43.42;26.45;;;4.30;99.90;;;;;;5052684;28;20106;-86
2024/01/14 11:58:12;;;;;;;40.90;24.85;;;4.30;99.90;;;;;;5052656;28;20048;-85
2024/01/14 12:00:39;;;;;;;38.25;23.95;;;4.30;99.90;;;;;;5035520;28;20037;-85
2024/01/14 12:03:04;;;;;;;39.85;24.55;;;4.30;99.90;;;;;;5035774;28;20025;-85
2024/01/14 12:05:30;;;;;;;39.40;23.80;;;4.30;99.90;;;;;;5052412;28;20036;-85
2024/01/14 12:07:56;;;;;;;42.10;25.27;;;4.30;99.90;;;;;;5052959;28;20034;-85
2024/01/14 12:10:22;;;;;;;38.47;23.75;;;4.40;99.90;;;;;;5053521;28;20037;-85
2024/01/14 12:12:48;;;;;;;40.95;24.20;;;4.40;99.90;;;;;;5035209;28;20040;-86
2024/01/14 12:15:14;;;;;;;38.03;23.90;;;4.40;99.90;;;;;;5051984;28;20084;-85
2024/01/14 12:17:51;;;;;;;38.25;22.60;;;4.50;99.90;;;;;;5053489;28;20033;-86
2024/01/14 12:20:21;;;;;;;38.00;23.38;;;4.50;99.90;;;;;;5052339;28;20469;-85
2024/01/14 12:22:47;;;;;;;36.13;23.80;;;4.50;99.90;;;;;;5051960;28;20029;-86
2024/01/14 12:25:14;;;;;;;38.22;22.33;;;4.60;99.90;;;;;;5035824;28;20028;-86
2024/01/14 12:27:39;;;;;;;41.92;23.42;;;4.50;99.90;;;;;;5035558;28;20402;-86
2024/01/14 12:30:07;;;;;;;37.67;23.58;;;4.50;99.90;;;;;;5052500;28;20025;-86
2024/01/14 12:32:34;;;;;;;39.53;24.88;;;4.50;99.90;;;;;;5054363;28;20120;-86
2024/01/14 12:35:09;;;;;;;40.08;23.80;;;4.50;99.90;;;;;;5057080;28;20029;-86
2024/01/14 12:37:35;;;;;;;37.97;23.00;;;4.40;99.90;;;;;;5058517;28;20056;-85
2024/01/14 12:40:01;;;;;;;35.08;22.80;;;4.40;99.90;;;;;;5059751;28;20033;-86